sensor_id;sensor_type;location;lat;lon;timestamp;temperature;humidity
23149;DHT22;11743;51.228;22.498;2024-02-16T00:00:12;5.30;99.90
23149;DHT22;11743;51.228;22.498;2024-02-16T00:00:35;5.30;99.90
23149;DHT22;11743;51.228;22.498;2024-02-16T00:00:57;5.40;99.90
23149;DHT22;11743;51.228;22.498;2024-02-16T00:01:18;5.40;99.90
23149;DHT22;11743;51.228;22.498;2024-02-16T00:01:40;5.30;99.90
23149;DHT22;11743;51.228;22.498;2024-02-16T00:02:02;5.30;99.90
23149;DHT22;11743;51.228;22.498;2024-02-16T00:02:24;5.30;99.90
23149;DHT22;11743;51.228;22.498;2024-02-16T00:02:46;5.30;99.90
23149;DHT22;11743;51.228;22.498;2024-02-16T00:03:08;5.30;99.90
23149;DHT22;11743;51.228;22.498;2024-02-16T00:03:31;5.30;99.90
23149;DHT22;11743;51.228;22.498;2024-02-16T00:03:53;5.30;99.90
23149;DHT22;11743;51.228;22.498;2024-02-16T00:04:15;5.30;99.90
23149;DHT22;11743;51.228;22.498;2024-02-16T00:04:36;5.30;99.90
23149;DHT22;11743;51.228;22.498;2024-02-16T00:04:58;5.30;99.90
23149;DHT22;11743;51.228;22.498;2024-02-16T00:05:21;5.30;99.90
23149;DHT22;11743;51.228;22.498;2024-02-16T00:05:44;5.30;99.90
23149;DHT22;11743;51.228;22.498;2024-02-16T00:06:05;5.30;99.90
23149;DHT22;11743;51.228;22.498;2024-02-16T00:06:28;5.20;99.90
23149;DHT22;11743;51.228;22.498;2024-02-16T00:06:50;5.20;99.90
23149;DHT22;11743;51.228;22.498;2024-02-16T00:07:12;5.20;99.90
23149;DHT22;11743;51.228;22.498;2024-02-16T00:07:34;5.20;99.90
23149;DHT22;11743;51.228;22.498;2024-02-16T00:07:56;5.20;99.90
23149;DHT22;11743;51.228;22.498;2024-02-16T00:08:19;5.20;99.90
23149;DHT22;11743;51.228;22.498;2024-02-16T00:08:41;5.20;99.90
23149;DHT22;11743;51.228;22.498;2024-02-16T00:09:03;5.20;99.90
23149;DHT22;11743;51.228;22.498;2024-02-16T00:09:25;5.20;99.90
23149;DHT22;11743;51.228;22.498;2024-02-16T00:09:49;5.20;99.90
23149;DHT22;11743;51.228;22.498;2024-02-16T00:10:11;5.20;99.90
23149;DHT22;11743;51.228;22.498;2024-02-16T00:10:35;5.20;99.90
23149;DHT22;11743;51.228;22.498;2024-02-16T00:10:57;5.20;99.90
23149;DHT22;11743;51.228;22.498;2024-02-16T00:11:20;5.20;99.90
23149;DHT22;11743;51.228;22.498;2024-02-16T00:11:42;5.20;99.90
23149;DHT22;11743;51.228;22.498;2024-02-16T00:12:04;5.20;99.90
23149;DHT22;11743;51.228;22.498;2024-02-16T00:12:26;5.20;99.90
23149;DHT22;11743;51.228;22.498;2024-02-16T00:12:48;5.20;99.90
23149;DHT22;11743;51.228;22.498;2024-02-16T00:13:10;5.20;99.90
23149;DHT22;11743;51.228;22.498;2024-02-16T00:13:33;5.10;99.90
23149;DHT22;11743;51.228;22.498;2024-02-16T00:13:55;5.10;99.90
23149;DHT22;11743;51.228;22.498;2024-02-16T00:14:17;5.10;99.90
23149;DHT22;11743;51.228;22.498;2024-02-16T00:14:39;5.10;99.90
23149;DHT22;11743;51.228;22.498;2024-02-16T00:15:01;5.10;99.90
23149;DHT22;11743;51.228;22.498;2024-02-16T00:15:24;5.10;99.90
23149;DHT22;11743;51.228;22.498;2024-02-16T00:15:46;5.20;99.90
23149;DHT22;11743;51.228;22.498;2024-02-16T00:16:08;5.10;99.90
23149;DHT22;11743;51.228;22.498;2024-02-16T00:16:30;5.10;99.90
23149;DHT22;11743;51.228;22.498;2024-02-16T00:16:52;5.10;99.90
23149;DHT22;11743;51.228;22.498;2024-02-16T00:17:13;5.20;99.90
23149;DHT22;11743;51.228;22.498;2024-02-16T00:17:36;5.10;99.90
23149;DHT22;11743;51.228;22.498;2024-02-16T00:17:59;5.10;99.90
23149;DHT22;11743;51.228;22.498;2024-02-16T00:18:21;5.10;99.90
23149;DHT22;11743;51.228;22.498;2024-02-16T00:18:43;4.50;99.90
23149;DHT22;11743;51.228;22.498;2024-02-16T00:19:06;5.20;99.90
23149;DHT22;11743;51.228;22.498;2024-02-16T00:19:27;5.10;99.90
23149;DHT22;11743;51.228;22.498;2024-02-16T00:19:50;5.30;99.90
23149;DHT22;11743;51.228;22.498;2024-02-16T00:20:12;5.20;99.90
23149;DHT22;11743;51.228;22.498;2024-02-16T00:20:34;5.10;99.90
23149;DHT22;11743;51.228;22.498;2024-02-16T00:20:56;5.20;99.90
23149;DHT22;11743;51.228;22.498;2024-02-16T00:21:18;5.20;99.90
23149;DHT22;11743;51.228;22.498;2024-02-16T00:21:41;5.10;99.90
23149;DHT22;11743;51.228;22.498;2024-02-16T00:22:04;5.20;99.90
23149;DHT22;11743;51.228;22.498;2024-02-16T00:22:28;5.10;99.90
23149;DHT22;11743;51.228;22.498;2024-02-16T00:22:50;5.10;99.90
23149;DHT22;11743;51.228;22.498;2024-02-16T00:23:13;5.10;99.90
23149;DHT22;11743;51.228;22.498;2024-02-16T00:23:35;5.10;99.90
23149;DHT22;11743;51.228;22.498;2024-02-16T00:23:57;5.10;99.90
23149;DHT22;11743;51.228;22.498;2024-02-16T00:24:19;5.10;99.90
23149;DHT22;11743;51.228;22.498;2024-02-16T00:24:40;5.10;99.90
23149;DHT22;11743;51.228;22.498;2024-02-16T00:25:02;5.10;99.90
23149;DHT22;11743;51.228;22.498;2024-02-16T00:25:25;5.10;99.90
23149;DHT22;11743;51.228;22.498;2024-02-16T00:25:46;5.10;99.90
23149;DHT22;11743;51.228;22.498;2024-02-16T00:26:09;5.10;99.90
23149;DHT22;11743;51.228;22.498;2024-02-16T00:26:31;5.10;99.90
23149;DHT22;11743;51.228;22.498;2024-02-16T00:26:53;5.10;99.90
23149;DHT22;11743;51.228;22.498;2024-02-16T00:27:15;5.10;99.90
23149;DHT22;11743;51.228;22.498;2024-02-16T00:27:37;5.10;99.90
23149;DHT22;11743;51.228;22.498;2024-02-16T00:28:00;5.10;99.90
23149;DHT22;11743;51.228;22.498;2024-02-16T00:28:22;5.10;99.90
23149;DHT22;11743;51.228;22.498;2024-02-16T00:28:44;5.10;99.90
23149;DHT22;11743;51.228;22.498;2024-02-16T00:29:06;5.00;99.90
23149;DHT22;11743;51.228;22.498;2024-02-16T00:29:28;5.00;99.90
23149;DHT22;11743;51.228;22.498;2024-02-16T00:29:50;5.10;99.90
23149;DHT22;11743;51.228;22.498;2024-02-16T00:30:13;5.10;99.90
23149;DHT22;11743;51.228;22.498;2024-02-16T00:30:37;5.00;99.90
23149;DHT22;11743;51.228;22.498;2024-02-16T00:31:00;5.10;99.90
23149;DHT22;11743;51.228;22.498;2024-02-16T00:31:22;5.10;99.90
23149;DHT22;11743;51.228;22.498;2024-02-16T00:31:44;5.00;99.90
23149;DHT22;11743;51.228;22.498;2024-02-16T00:32:06;5.10;99.90
23149;DHT22;11743;51.228;22.498;2024-02-16T00:32:28;5.10;99.90
23149;DHT22;11743;51.228;22.498;2024-02-16T00:32:52;5.10;99.90
23149;DHT22;11743;51.228;22.498;2024-02-16T00:33:14;5.10;99.90
23149;DHT22;11743;51.228;22.498;2024-02-16T00:33:36;5.10;99.90
23149;DHT22;11743;51.228;22.498;2024-02-16T00:33:59;5.10;99.90
23149;DHT22;11743;51.228;22.498;2024-02-16T00:34:21;5.10;99.90
23149;DHT22;11743;51.228;22.498;2024-02-16T00:34:43;5.00;99.90
23149;DHT22;11743;51.228;22.498;2024-02-16T00:35:05;5.00;99.90
23149;DHT22;11743;51.228;22.498;2024-02-16T00:35:27;5.00;99.90
23149;DHT22;11743;51.228;22.498;2024-02-16T00:35:49;5.00;99.90
23149;DHT22;11743;51.228;22.498;2024-02-16T00:36:11;5.00;99.90
23149;DHT22;11743;51.228;22.498;2024-02-16T00:36:33;5.10;99.90
23149;DHT22;11743;51.228;22.498;2024-02-16T00:36:56;5.10;99.90
23149;DHT22;11743;51.228;22.498;2024-02-16T00:37:17;5.00;99.90
23149;DHT22;11743;51.228;22.498;2024-02-16T00:37:39;5.00;99.90
23149;DHT22;11743;51.228;22.498;2024-02-16T00:38:01;5.10;99.90
23149;DHT22;11743;51.228;22.498;2024-02-16T00:38:23;5.00;99.90
23149;DHT22;11743;51.228;22.498;2024-02-16T00:38:45;5.00;99.90
23149;DHT22;11743;51.228;22.498;2024-02-16T00:39:08;5.00;99.90
23149;DHT22;11743;51.228;22.498;2024-02-16T00:39:30;5.00;99.90
23149;DHT22;11743;51.228;22.498;2024-02-16T00:39:52;5.00;99.90
23149;DHT22;11743;51.228;22.498;2024-02-16T00:40:16;5.10;99.90
23149;DHT22;11743;51.228;22.498;2024-02-16T00:40:38;5.00;99.90
23149;DHT22;11743;51.228;22.498;2024-02-16T00:41:05;5.00;99.90
23149;DHT22;11743;51.228;22.498;2024-02-16T00:41:27;5.00;99.90
23149;DHT22;11743;51.228;22.498;2024-02-16T00:41:49;5.00;99.90
23149;DHT22;11743;51.228;22.498;2024-02-16T00:42:11;5.00;99.90
23149;DHT22;11743;51.228;22.498;2024-02-16T00:42:33;5.00;99.90
23149;DHT22;11743;51.228;22.498;2024-02-16T00:42:55;5.10;99.90
23149;DHT22;11743;51.228;22.498;2024-02-16T00:43:17;5.00;99.90
23149;DHT22;11743;51.228;22.498;2024-02-16T00:43:39;5.10;99.90
23149;DHT22;11743;51.228;22.498;2024-02-16T00:44:01;5.00;99.90
23149;DHT22;11743;51.228;22.498;2024-02-16T00:44:23;5.00;99.90
23149;DHT22;11743;51.228;22.498;2024-02-16T00:44:45;5.00;99.90
23149;DHT22;11743;51.228;22.498;2024-02-16T00:45:07;5.00;99.90
23149;DHT22;11743;51.228;22.498;2024-02-16T00:45:30;5.00;99.90
23149;DHT22;11743;51.228;22.498;2024-02-16T00:45:52;5.00;99.90
23149;DHT22;11743;51.228;22.498;2024-02-16T00:46:13;5.00;99.90
23149;DHT22;11743;51.228;22.498;2024-02-16T00:46:36;5.00;99.90
23149;DHT22;11743;51.228;22.498;2024-02-16T00:46:57;5.10;99.90
23149;DHT22;11743;51.228;22.498;2024-02-16T00:47:19;5.00;99.90
23149;DHT22;11743;51.228;22.498;2024-02-16T00:47:41;5.00;99.90
23149;DHT22;11743;51.228;22.498;2024-02-16T00:48:03;5.00;99.90
23149;DHT22;11743;51.228;22.498;2024-02-16T00:48:26;5.00;99.90
23149;DHT22;11743;51.228;22.498;2024-02-16T00:48:50;5.00;99.90
23149;DHT22;11743;51.228;22.498;2024-02-16T00:49:13;5.00;99.90
23149;DHT22;11743;51.228;22.498;2024-02-16T00:49:35;5.00;99.90
23149;DHT22;11743;51.228;22.498;2024-02-16T00:49:57;5.00;99.90
23149;DHT22;11743;51.228;22.498;2024-02-16T00:50:19;5.00;99.90
23149;DHT22;11743;51.228;22.498;2024-02-16T00:50:40;5.00;99.90
23149;DHT22;11743;51.228;22.498;2024-02-16T00:51:05;5.00;99.90
23149;DHT22;11743;51.228;22.498;2024-02-16T00:51:27;5.00;99.90
23149;DHT22;11743;51.228;22.498;2024-02-16T00:51:48;5.00;99.90
23149;DHT22;11743;51.228;22.498;2024-02-16T00:52:12;5.00;99.90
23149;DHT22;11743;51.228;22.498;2024-02-16T00:52:34;5.00;99.90
23149;DHT22;11743;51.228;22.498;2024-02-16T00:52:56;5.00;99.90
23149;DHT22;11743;51.228;22.498;2024-02-16T00:53:18;5.00;99.90
23149;DHT22;11743;51.228;22.498;2024-02-16T00:53:41;5.00;99.90
23149;DHT22;11743;51.228;22.498;2024-02-16T00:54:03;5.00;99.90
23149;DHT22;11743;51.228;22.498;2024-02-16T00:54:25;5.40;99.90
23149;DHT22;11743;51.228;22.498;2024-02-16T00:54:48;5.00;99.90
23149;DHT22;11743;51.228;22.498;2024-02-16T00:55:10;5.00;99.90
23149;DHT22;11743;51.228;22.498;2024-02-16T00:55:32;5.00;99.90
23149;DHT22;11743;51.228;22.498;2024-02-16T00:55:54;5.00;99.90
23149;DHT22;11743;51.228;22.498;2024-02-16T00:56:15;4.90;99.90
23149;DHT22;11743;51.228;22.498;2024-02-16T00:56:37;4.90;99.90
23149;DHT22;11743;51.228;22.498;2024-02-16T00:57:00;5.00;99.90
23149;DHT22;11743;51.228;22.498;2024-02-16T00:57:25;5.00;99.90
23149;DHT22;11743;51.228;22.498;2024-02-16T00:57:47;5.00;99.90
23149;DHT22;11743;51.228;22.498;2024-02-16T00:58:08;5.00;99.90
23149;DHT22;11743;51.228;22.498;2024-02-16T00:58:30;5.00;99.90
23149;DHT22;11743;51.228;22.498;2024-02-16T00:58:52;5.00;99.90
23149;DHT22;11743;51.228;22.498;2024-02-16T00:59:14;5.00;99.90
23149;DHT22;11743;51.228;22.498;2024-02-16T00:59:36;5.00;99.90
23149;DHT22;11743;51.228;22.498;2024-02-16T00:59:58;5.00;99.90
23149;DHT22;11743;51.228;22.498;2024-02-16T01:00:20;5.00;99.90
23149;DHT22;11743;51.228;22.498;2024-02-16T01:00:42;5.10;99.90
23149;DHT22;11743;51.228;22.498;2024-02-16T01:01:05;5.00;99.90
23149;DHT22;11743;51.228;22.498;2024-02-16T01:01:32;5.00;99.90
23149;DHT22;11743;51.228;22.498;2024-02-16T01:01:54;5.00;99.90
23149;DHT22;11743;51.228;22.498;2024-02-16T01:02:15;5.00;99.90
23149;DHT22;11743;51.228;22.498;2024-02-16T01:02:38;5.10;99.90
23149;DHT22;11743;51.228;22.498;2024-02-16T01:03:00;5.00;99.90
23149;DHT22;11743;51.228;22.498;2024-02-16T01:03:22;5.00;99.90
23149;DHT22;11743;51.228;22.498;2024-02-16T01:03:44;5.00;99.90
23149;DHT22;11743;51.228;22.498;2024-02-16T01:04:06;5.00;99.90
23149;DHT22;11743;51.228;22.498;2024-02-16T01:04:28;5.00;99.90
23149;DHT22;11743;51.228;22.498;2024-02-16T01:04:51;5.00;99.90
23149;DHT22;11743;51.228;22.498;2024-02-16T01:05:14;5.10;99.90
23149;DHT22;11743;51.228;22.498;2024-02-16T01:05:39;5.10;99.90
23149;DHT22;11743;51.228;22.498;2024-02-16T01:06:05;5.10;99.90
23149;DHT22;11743;51.228;22.498;2024-02-16T01:06:27;5.10;99.90
23149;DHT22;11743;51.228;22.498;2024-02-16T01:06:49;5.10;99.90
23149;DHT22;11743;51.228;22.498;2024-02-16T01:07:11;5.10;99.90
23149;DHT22;11743;51.228;22.498;2024-02-16T01:07:33;5.10;99.90
23149;DHT22;11743;51.228;22.498;2024-02-16T01:07:55;5.10;99.90
23149;DHT22;11743;51.228;22.498;2024-02-16T01:08:17;5.10;99.90
23149;DHT22;11743;51.228;22.498;2024-02-16T01:08:39;5.10;99.90
23149;DHT22;11743;51.228;22.498;2024-02-16T01:09:01;5.10;99.90
23149;DHT22;11743;51.228;22.498;2024-02-16T01:09:24;5.10;99.90
23149;DHT22;11743;51.228;22.498;2024-02-16T01:09:46;5.10;99.90
23149;DHT22;11743;51.228;22.498;2024-02-16T01:10:08;5.20;99.90
23149;DHT22;11743;51.228;22.498;2024-02-16T01:10:30;5.10;99.90
23149;DHT22;11743;51.228;22.498;2024-02-16T01:10:52;5.10;99.90
23149;DHT22;11743;51.228;22.498;2024-02-16T01:11:14;5.20;99.90
23149;DHT22;11743;51.228;22.498;2024-02-16T01:11:36;5.10;99.90
23149;DHT22;11743;51.228;22.498;2024-02-16T01:11:57;5.20;99.90
23149;DHT22;11743;51.228;22.498;2024-02-16T01:12:19;5.10;99.90
23149;DHT22;11743;51.228;22.498;2024-02-16T01:12:41;5.10;99.90
23149;DHT22;11743;51.228;22.498;2024-02-16T01:13:03;5.10;99.90
23149;DHT22;11743;51.228;22.498;2024-02-16T01:13:27;5.10;99.90
23149;DHT22;11743;51.228;22.498;2024-02-16T01:13:48;5.20;99.90
23149;DHT22;11743;51.228;22.498;2024-02-16T01:14:11;5.20;99.90
23149;DHT22;11743;51.228;22.498;2024-02-16T01:14:33;5.20;99.90
23149;DHT22;11743;51.228;22.498;2024-02-16T01:14:54;5.20;99.90
23149;DHT22;11743;51.228;22.498;2024-02-16T01:15:16;5.20;99.90
23149;DHT22;11743;51.228;22.498;2024-02-16T01:15:38;5.20;99.90
23149;DHT22;11743;51.228;22.498;2024-02-16T01:16:00;5.20;99.90
23149;DHT22;11743;51.228;22.498;2024-02-16T01:16:22;5.20;99.90
23149;DHT22;11743;51.228;22.498;2024-02-16T01:16:45;5.20;99.90
23149;DHT22;11743;51.228;22.498;2024-02-16T01:17:07;5.20;99.90
23149;DHT22;11743;51.228;22.498;2024-02-16T01:17:29;5.20;99.90
23149;DHT22;11743;51.228;22.498;2024-02-16T01:17:51;5.20;99.90
23149;DHT22;11743;51.228;22.498;2024-02-16T01:18:13;5.20;99.90
23149;DHT22;11743;51.228;22.498;2024-02-16T01:18:35;5.20;99.90
23149;DHT22;11743;51.228;22.498;2024-02-16T01:18:59;5.20;99.90
23149;DHT22;11743;51.228;22.498;2024-02-16T01:19:21;5.20;99.90
23149;DHT22;11743;51.228;22.498;2024-02-16T01:19:43;5.20;99.90
23149;DHT22;11743;51.228;22.498;2024-02-16T01:20:06;5.20;99.90
23149;DHT22;11743;51.228;22.498;2024-02-16T01:20:33;5.20;99.90
23149;DHT22;11743;51.228;22.498;2024-02-16T01:20:55;5.20;99.90
23149;DHT22;11743;51.228;22.498;2024-02-16T01:21:17;5.20;99.90
23149;DHT22;11743;51.228;22.498;2024-02-16T01:21:39;5.20;99.90
23149;DHT22;11743;51.228;22.498;2024-02-16T01:22:01;5.20;99.90
23149;DHT22;11743;51.228;22.498;2024-02-16T01:22:23;5.20;99.90
23149;DHT22;11743;51.228;22.498;2024-02-16T01:22:45;5.20;99.90
23149;DHT22;11743;51.228;22.498;2024-02-16T01:23:06;5.20;99.90
23149;DHT22;11743;51.228;22.498;2024-02-16T01:23:28;5.20;99.90
23149;DHT22;11743;51.228;22.498;2024-02-16T01:23:50;5.20;99.90
23149;DHT22;11743;51.228;22.498;2024-02-16T01:24:13;5.20;99.90
23149;DHT22;11743;51.228;22.498;2024-02-16T01:24:35;5.20;99.90
23149;DHT22;11743;51.228;22.498;2024-02-16T01:24:57;5.20;99.90
23149;DHT22;11743;51.228;22.498;2024-02-16T01:25:19;5.20;99.90
23149;DHT22;11743;51.228;22.498;2024-02-16T01:25:41;6.10;99.90
23149;DHT22;11743;51.228;22.498;2024-02-16T01:26:04;5.20;99.90
23149;DHT22;11743;51.228;22.498;2024-02-16T01:26:25;5.20;99.90
23149;DHT22;11743;51.228;22.498;2024-02-16T01:26:47;5.20;99.90
23149;DHT22;11743;51.228;22.498;2024-02-16T01:27:09;5.30;99.90
23149;DHT22;11743;51.228;22.498;2024-02-16T01:27:32;5.20;99.90
23149;DHT22;11743;51.228;22.498;2024-02-16T01:27:54;5.30;99.90
23149;DHT22;11743;51.228;22.498;2024-02-16T01:28:16;5.20;99.90
23149;DHT22;11743;51.228;22.498;2024-02-16T01:28:38;5.20;99.90
23149;DHT22;11743;51.228;22.498;2024-02-16T01:29:00;5.20;99.90
23149;DHT22;11743;51.228;22.498;2024-02-16T01:29:23;5.20;99.90
23149;DHT22;11743;51.228;22.498;2024-02-16T01:29:45;5.20;99.90
23149;DHT22;11743;51.228;22.498;2024-02-16T01:30:08;5.20;99.90
23149;DHT22;11743;51.228;22.498;2024-02-16T01:30:30;5.20;99.90
23149;DHT22;11743;51.228;22.498;2024-02-16T01:30:52;5.20;99.90
23149;DHT22;11743;51.228;22.498;2024-02-16T01:31:13;5.20;99.90
23149;DHT22;11743;51.228;22.498;2024-02-16T01:31:35;5.20;99.90
23149;DHT22;11743;51.228;22.498;2024-02-16T01:31:58;5.20;99.90
23149;DHT22;11743;51.228;22.498;2024-02-16T01:32:20;5.20;99.90
23149;DHT22;11743;51.228;22.498;2024-02-16T01:32:42;5.20;99.90
23149;DHT22;11743;51.228;22.498;2024-02-16T01:33:04;5.20;99.90
23149;DHT22;11743;51.228;22.498;2024-02-16T01:33:27;5.20;99.90
23149;DHT22;11743;51.228;22.498;2024-02-16T01:33:51;5.20;99.90
23149;DHT22;11743;51.228;22.498;2024-02-16T01:34:14;5.20;99.90
23149;DHT22;11743;51.228;22.498;2024-02-16T01:34:36;5.20;99.90
23149;DHT22;11743;51.228;22.498;2024-02-16T01:35:18;5.20;99.90
23149;DHT22;11743;51.228;22.498;2024-02-16T01:35:57;5.20;99.90
23149;DHT22;11743;51.228;22.498;2024-02-16T01:36:36;5.20;99.90
23149;DHT22;11743;51.228;22.498;2024-02-16T01:36:58;5.20;99.90
23149;DHT22;11743;51.228;22.498;2024-02-16T01:37:20;5.20;99.90
23149;DHT22;11743;51.228;22.498;2024-02-16T01:37:42;5.10;99.90
23149;DHT22;11743;51.228;22.498;2024-02-16T01:38:04;5.10;99.90
23149;DHT22;11743;51.228;22.498;2024-02-16T01:38:27;5.10;99.90
23149;DHT22;11743;51.228;22.498;2024-02-16T01:38:48;5.20;99.90
23149;DHT22;11743;51.228;22.498;2024-02-16T01:39:11;5.10;99.90
23149;DHT22;11743;51.228;22.498;2024-02-16T01:39:33;5.10;99.90
23149;DHT22;11743;51.228;22.498;2024-02-16T01:39:54;5.10;99.90
23149;DHT22;11743;51.228;22.498;2024-02-16T01:40:16;5.10;99.90
23149;DHT22;11743;51.228;22.498;2024-02-16T01:40:40;5.10;99.90
23149;DHT22;11743;51.228;22.498;2024-02-16T01:41:01;5.10;99.90
23149;DHT22;11743;51.228;22.498;2024-02-16T01:41:23;5.10;99.90
23149;DHT22;11743;51.228;22.498;2024-02-16T01:41:45;5.10;99.90
23149;DHT22;11743;51.228;22.498;2024-02-16T01:42:07;5.10;99.90
23149;DHT22;11743;51.228;22.498;2024-02-16T01:42:29;5.00;99.90
23149;DHT22;11743;51.228;22.498;2024-02-16T01:42:51;5.00;99.90
23149;DHT22;11743;51.228;22.498;2024-02-16T01:43:13;5.10;99.90
23149;DHT22;11743;51.228;22.498;2024-02-16T01:43:34;5.00;99.90
23149;DHT22;11743;51.228;22.498;2024-02-16T01:43:56;5.10;99.90
23149;DHT22;11743;51.228;22.498;2024-02-16T01:44:18;5.00;99.90
23149;DHT22;11743;51.228;22.498;2024-02-16T01:44:40;5.00;99.90
23149;DHT22;11743;51.228;22.498;2024-02-16T01:45:02;5.00;99.90
23149;DHT22;11743;51.228;22.498;2024-02-16T01:45:24;5.00;99.90
23149;DHT22;11743;51.228;22.498;2024-02-16T01:45:46;5.00;99.90
23149;DHT22;11743;51.228;22.498;2024-02-16T01:46:08;5.00;99.90
23149;DHT22;11743;51.228;22.498;2024-02-16T01:46:30;5.00;99.90
23149;DHT22;11743;51.228;22.498;2024-02-16T01:46:51;5.00;99.90
23149;DHT22;11743;51.228;22.498;2024-02-16T01:47:14;5.00;99.90
23149;DHT22;11743;51.228;22.498;2024-02-16T01:47:37;5.00;99.90
23149;DHT22;11743;51.228;22.498;2024-02-16T01:47:59;5.00;99.90
23149;DHT22;11743;51.228;22.498;2024-02-16T01:48:21;5.00;99.90
23149;DHT22;11743;51.228;22.498;2024-02-16T01:48:43;4.90;99.90
23149;DHT22;11743;51.228;22.498;2024-02-16T01:49:05;4.90;99.90
23149;DHT22;11743;51.228;22.498;2024-02-16T01:49:29;4.90;99.90
23149;DHT22;11743;51.228;22.498;2024-02-16T01:49:51;4.90;99.90
23149;DHT22;11743;51.228;22.498;2024-02-16T01:50:15;4.90;99.90
23149;DHT22;11743;51.228;22.498;2024-02-16T01:50:37;4.90;99.90
23149;DHT22;11743;51.228;22.498;2024-02-16T01:51:00;4.90;99.90
23149;DHT22;11743;51.228;22.498;2024-02-16T01:51:24;4.90;99.90
23149;DHT22;11743;51.228;22.498;2024-02-16T01:51:47;4.90;99.90
23149;DHT22;11743;51.228;22.498;2024-02-16T01:52:10;4.90;99.90
23149;DHT22;11743;51.228;22.498;2024-02-16T01:52:33;4.90;99.90
23149;DHT22;11743;51.228;22.498;2024-02-16T01:52:57;4.80;99.90
23149;DHT22;11743;51.228;22.498;2024-02-16T01:53:20;4.80;99.90
23149;DHT22;11743;51.228;22.498;2024-02-16T01:53:42;4.90;99.90
23149;DHT22;11743;51.228;22.498;2024-02-16T01:54:03;4.80;99.90
23149;DHT22;11743;51.228;22.498;2024-02-16T01:54:25;4.80;99.90
23149;DHT22;11743;51.228;22.498;2024-02-16T01:54:47;4.80;99.90
23149;DHT22;11743;51.228;22.498;2024-02-16T01:55:09;4.80;99.90
23149;DHT22;11743;51.228;22.498;2024-02-16T01:55:32;4.70;99.90
23149;DHT22;11743;51.228;22.498;2024-02-16T01:55:54;4.80;99.90
23149;DHT22;11743;51.228;22.498;2024-02-16T01:56:16;4.70;99.90
23149;DHT22;11743;51.228;22.498;2024-02-16T01:56:38;4.70;99.90
23149;DHT22;11743;51.228;22.498;2024-02-16T01:57:00;4.70;99.90
23149;DHT22;11743;51.228;22.498;2024-02-16T01:57:23;4.80;99.90
23149;DHT22;11743;51.228;22.498;2024-02-16T01:57:48;4.70;99.90
23149;DHT22;11743;51.228;22.498;2024-02-16T01:58:10;4.70;99.90
23149;DHT22;11743;51.228;22.498;2024-02-16T01:58:34;4.70;99.90
23149;DHT22;11743;51.228;22.498;2024-02-16T01:58:55;4.70;99.90
23149;DHT22;11743;51.228;22.498;2024-02-16T01:59:17;4.60;99.90
23149;DHT22;11743;51.228;22.498;2024-02-16T01:59:40;4.60;99.90
23149;DHT22;11743;51.228;22.498;2024-02-16T02:00:03;4.60;99.90
23149;DHT22;11743;51.228;22.498;2024-02-16T02:00:27;4.60;99.90
23149;DHT22;11743;51.228;22.498;2024-02-16T02:00:49;4.60;99.90
23149;DHT22;11743;51.228;22.498;2024-02-16T02:01:10;4.50;99.90
23149;DHT22;11743;51.228;22.498;2024-02-16T02:01:32;4.50;99.90
23149;DHT22;11743;51.228;22.498;2024-02-16T02:01:54;4.50;99.90
23149;DHT22;11743;51.228;22.498;2024-02-16T02:02:16;4.50;99.90
23149;DHT22;11743;51.228;22.498;2024-02-16T02:02:38;4.50;99.90
23149;DHT22;11743;51.228;22.498;2024-02-16T02:02:59;4.40;99.90
23149;DHT22;11743;51.228;22.498;2024-02-16T02:03:21;4.40;99.90
23149;DHT22;11743;51.228;22.498;2024-02-16T02:03:44;4.40;99.90
23149;DHT22;11743;51.228;22.498;2024-02-16T02:04:06;4.40;99.90
23149;DHT22;11743;51.228;22.498;2024-02-16T02:04:28;4.40;99.90
23149;DHT22;11743;51.228;22.498;2024-02-16T02:04:50;4.30;99.90
23149;DHT22;11743;51.228;22.498;2024-02-16T02:05:12;4.30;99.90
23149;DHT22;11743;51.228;22.498;2024-02-16T02:05:43;4.30;99.90
23149;DHT22;11743;51.228;22.498;2024-02-16T02:06:07;4.30;99.90
23149;DHT22;11743;51.228;22.498;2024-02-16T02:06:29;4.20;99.90
23149;DHT22;11743;51.228;22.498;2024-02-16T02:06:52;4.20;99.90
23149;DHT22;11743;51.228;22.498;2024-02-16T02:07:15;4.20;99.90
23149;DHT22;11743;51.228;22.498;2024-02-16T02:07:37;4.20;99.90
23149;DHT22;11743;51.228;22.498;2024-02-16T02:07:59;4.20;99.90
23149;DHT22;11743;51.228;22.498;2024-02-16T02:08:30;4.20;99.90
23149;DHT22;11743;51.228;22.498;2024-02-16T02:08:52;4.10;99.90
23149;DHT22;11743;51.228;22.498;2024-02-16T02:09:13;4.10;99.90
23149;DHT22;11743;51.228;22.498;2024-02-16T02:09:35;4.10;99.90
23149;DHT22;11743;51.228;22.498;2024-02-16T02:09:57;4.10;99.90
23149;DHT22;11743;51.228;22.498;2024-02-16T02:10:19;4.10;99.90
23149;DHT22;11743;51.228;22.498;2024-02-16T02:10:41;4.10;99.90
23149;DHT22;11743;51.228;22.498;2024-02-16T02:11:03;4.00;99.90
23149;DHT22;11743;51.228;22.498;2024-02-16T02:11:27;4.00;99.90
23149;DHT22;11743;51.228;22.498;2024-02-16T02:11:49;4.00;99.90
23149;DHT22;11743;51.228;22.498;2024-02-16T02:12:11;3.90;99.90
23149;DHT22;11743;51.228;22.498;2024-02-16T02:12:33;3.90;99.90
23149;DHT22;11743;51.228;22.498;2024-02-16T02:12:55;3.90;99.90
23149;DHT22;11743;51.228;22.498;2024-02-16T02:13:17;3.90;99.90
23149;DHT22;11743;51.228;22.498;2024-02-16T02:13:40;3.80;99.90
23149;DHT22;11743;51.228;22.498;2024-02-16T02:14:03;3.80;99.90
23149;DHT22;11743;51.228;22.498;2024-02-16T02:14:25;3.80;99.90
23149;DHT22;11743;51.228;22.498;2024-02-16T02:14:48;3.80;99.90
23149;DHT22;11743;51.228;22.498;2024-02-16T02:15:10;3.70;99.90
23149;DHT22;11743;51.228;22.498;2024-02-16T02:15:33;3.70;99.90
23149;DHT22;11743;51.228;22.498;2024-02-16T02:16:00;3.70;99.90
23149;DHT22;11743;51.228;22.498;2024-02-16T02:16:25;3.60;99.90
23149;DHT22;11743;51.228;22.498;2024-02-16T02:16:48;3.60;99.90
23149;DHT22;11743;51.228;22.498;2024-02-16T02:17:19;3.60;99.90
23149;DHT22;11743;51.228;22.498;2024-02-16T02:17:41;3.50;99.90
23149;DHT22;11743;51.228;22.498;2024-02-16T02:18:03;3.50;99.90
23149;DHT22;11743;51.228;22.498;2024-02-16T02:18:26;3.50;99.90
23149;DHT22;11743;51.228;22.498;2024-02-16T02:18:48;3.50;99.90
23149;DHT22;11743;51.228;22.498;2024-02-16T02:19:10;3.40;99.90
23149;DHT22;11743;51.228;22.498;2024-02-16T02:19:34;3.40;99.90
23149;DHT22;11743;51.228;22.498;2024-02-16T02:19:57;3.40;99.90
23149;DHT22;11743;51.228;22.498;2024-02-16T02:20:19;3.30;99.90
23149;DHT22;11743;51.228;22.498;2024-02-16T02:20:40;3.30;99.90
23149;DHT22;11743;51.228;22.498;2024-02-16T02:21:02;3.30;99.90
23149;DHT22;11743;51.228;22.498;2024-02-16T02:21:24;3.30;99.90
23149;DHT22;11743;51.228;22.498;2024-02-16T02:21:47;3.30;99.90
23149;DHT22;11743;51.228;22.498;2024-02-16T02:22:18;3.30;99.90